createdAt,value
2023-10-02T00:00:52.007Z,0.00
2023-10-02T00:01:52.343Z,0.00
2023-10-02T00:02:51.469Z,0.00
2023-10-02T00:03:52.474Z,0.00
2023-10-02T00:04:51.708Z,0.00
2023-10-02T00:05:52.728Z,0.00
2023-10-02T00:06:50.849Z,0.00
2023-10-02T00:07:51.019Z,0.00
2023-10-02T00:08:51.160Z,0.00
2023-10-02T00:09:51.222Z,0.00
2023-10-02T00:10:51.392Z,0.00
2023-10-02T00:11:51.471Z,0.00
2023-10-02T00:12:51.577Z,0.00
2023-10-02T00:13:50.683Z,0.00
2023-10-02T00:14:50.821Z,0.00
2023-10-02T00:15:50.964Z,0.00
2023-10-02T00:16:51.149Z,0.02
2023-10-02T00:17:52.229Z,0.00
2023-10-02T00:18:51.359Z,0.00
2023-10-02T00:19:52.818Z,0.00
2023-10-02T00:20:50.646Z,0.00
2023-10-02T00:21:50.752Z,0.00
2023-10-02T00:22:50.912Z,0.00
2023-10-02T00:23:50.998Z,0.00
2023-10-02T00:24:51.129Z,0.00
2023-10-02T00:25:51.376Z,0.00
2023-10-02T00:26:51.373Z,0.02
2023-10-02T00:27:51.708Z,0.02
2023-10-02T00:28:50.610Z,0.00
2023-10-02T00:29:51.719Z,0.02
2023-10-02T00:30:50.863Z,0.00
2023-10-02T00:31:51.045Z,0.00
2023-10-02T00:32:51.428Z,0.00
2023-10-02T00:33:51.211Z,0.00
2023-10-02T00:34:51.371Z,0.02
2023-10-02T00:35:50.436Z,0.00
2023-10-02T00:36:51.517Z,0.00
2023-10-02T00:37:52.581Z,0.00
2023-10-02T00:38:51.751Z,0.00
2023-10-02T00:39:51.889Z,0.00
2023-10-02T00:40:51.130Z,0.00
2023-10-02T00:41:51.259Z,0.00
2023-10-02T00:42:50.379Z,0.00
2023-10-02T00:43:51.610Z,0.02
2023-10-02T00:44:51.561Z,0.00
2023-10-02T00:45:50.785Z,0.00
2023-10-02T00:46:51.855Z,0.00
2023-10-02T00:47:51.108Z,0.00
2023-10-02T00:48:51.211Z,0.00
2023-10-02T00:49:50.360Z,0.00
2023-10-02T00:50:50.967Z,0.00
2023-10-02T00:51:50.645Z,0.00
2023-10-02T00:52:50.918Z,0.00
2023-10-02T00:53:51.928Z,0.00
2023-10-02T00:54:51.136Z,0.00
2023-10-02T00:55:50.231Z,0.02
2023-10-02T00:56:51.352Z,0.00
2023-10-02T00:57:51.528Z,0.00
2023-10-02T00:58:51.646Z,0.00
2023-10-02T00:59:51.845Z,0.00
2023-10-02T01:00:51.006Z,0.00
2023-10-02T01:01:50.132Z,0.00
2023-10-02T01:02:50.295Z,0.00
2023-10-02T01:03:50.460Z,0.00
2023-10-02T01:04:51.634Z,0.00
2023-10-02T01:05:52.259Z,0.00
2023-10-02T01:06:50.984Z,0.00
2023-10-02T01:07:50.143Z,0.02
2023-10-02T01:08:50.253Z,0.00
2023-10-02T01:09:50.399Z,0.00
2023-10-02T01:10:51.521Z,0.00
2023-10-02T01:11:50.760Z,0.00
2023-10-02T01:12:51.833Z,0.00
2023-10-02T01:13:50.046Z,0.00
2023-10-02T01:14:50.161Z,0.00
2023-10-02T01:15:50.852Z,0.00
2023-10-02T01:16:50.540Z,0.00
2023-10-02T01:17:50.706Z,0.00
2023-10-02T01:18:50.741Z,0.00
2023-10-02T01:19:49.914Z,0.00
2023-10-02T01:20:50.013Z,0.00
2023-10-02T01:21:50.156Z,0.00
2023-10-02T01:22:50.351Z,0.00
2023-10-02T01:23:50.559Z,0.00
2023-10-02T01:24:50.595Z,0.00
2023-10-02T01:25:49.759Z,0.00
2023-10-02T01:26:49.911Z,0.00
2023-10-02T01:27:50.267Z,0.00
2023-10-02T01:28:50.282Z,0.00
2023-10-02T01:29:50.364Z,0.00
2023-10-02T01:30:50.566Z,0.00
2023-10-02T01:31:49.747Z,0.00
2023-10-02T01:32:49.933Z,0.00
2023-10-02T01:33:49.954Z,0.00
2023-10-02T01:34:50.148Z,0.00
2023-10-02T01:35:50.777Z,0.00
2023-10-02T01:36:50.478Z,0.00
2023-10-02T01:37:49.584Z,0.00
2023-10-02T01:38:49.720Z,0.00
2023-10-02T01:39:49.898Z,0.00
2023-10-02T01:40:50.127Z,0.00
2023-10-02T01:41:50.361Z,0.00
2023-10-02T01:42:50.356Z,0.00
2023-10-02T01:43:50.497Z,0.00
2023-10-02T01:44:49.614Z,0.00
2023-10-02T01:45:49.774Z,0.00
2023-10-02T01:46:49.996Z,0.02
2023-10-02T01:47:50.283Z,0.00
2023-10-02T01:48:50.624Z,0.00
2023-10-02T01:49:50.463Z,0.00
2023-10-02T01:50:49.493Z,0.00
2023-10-02T01:51:49.636Z,0.00
2023-10-02T01:52:52.068Z,0.00
2023-10-02T01:53:50.024Z,0.00
2023-10-02T01:54:50.110Z,0.00
2023-10-02T01:55:50.348Z,0.00
2023-10-02T01:56:49.400Z,0.00
2023-10-02T01:57:49.536Z,0.00
2023-10-02T01:58:49.803Z,0.00
2023-10-02T01:59:50.959Z,0.00
2023-10-02T02:00:50.013Z,0.02
2023-10-02T02:01:50.295Z,0.00
2023-10-02T02:02:49.390Z,0.00
2023-10-02T02:03:49.456Z,0.00
2023-10-02T02:04:49.598Z,0.00
2023-10-02T02:05:49.753Z,0.00
2023-10-02T02:06:49.878Z,0.02
2023-10-02T02:07:50.063Z,0.00
2023-10-02T02:08:50.134Z,0.00
2023-10-02T02:09:49.272Z,0.00
2023-10-02T02:10:49.482Z,0.00
2023-10-02T02:11:49.693Z,0.00
2023-10-02T02:12:49.761Z,0.00
2023-10-02T02:13:49.921Z,0.00
2023-10-02T02:14:50.059Z,0.00
2023-10-02T02:15:49.184Z,0.00
2023-10-02T02:16:49.441Z,0.00
2023-10-02T02:17:49.704Z,0.00
2023-10-02T02:18:49.695Z,0.00
2023-10-02T02:19:50.388Z,0.00
2023-10-02T02:20:48.973Z,0.00
2023-10-02T02:22:11.034Z,0.00
2023-10-02T02:22:49.344Z,0.00
2023-10-02T02:23:49.533Z,0.00
2023-10-02T02:24:49.653Z,0.00
2023-10-02T02:25:49.815Z,0.00
2023-10-02T02:26:49.915Z,0.00
2023-10-02T02:27:49.028Z,0.00
2023-10-02T02:28:49.221Z,0.00
2023-10-02T02:29:49.468Z,0.00
2023-10-02T02:30:49.474Z,0.00
2023-10-02T02:31:49.700Z,0.00
2023-10-02T02:32:49.834Z,0.02
2023-10-02T02:33:48.891Z,0.00
2023-10-02T02:34:49.133Z,0.00
2023-10-02T02:35:49.292Z,0.02
2023-10-02T02:36:49.357Z,0.00
2023-10-02T02:37:49.616Z,0.00
2023-10-02T02:38:49.705Z,0.00
2023-10-02T02:39:48.833Z,0.00
2023-10-02T02:40:48.982Z,0.00
2023-10-02T02:41:49.178Z,0.00
2023-10-02T02:42:49.332Z,0.00
2023-10-02T02:43:49.558Z,0.02
2023-10-02T02:44:49.635Z,0.00
2023-10-02T02:45:48.823Z,0.02
2023-10-02T02:46:49.005Z,0.02
2023-10-02T02:47:49.089Z,0.00
2023-10-02T02:48:49.202Z,0.00
2023-10-02T02:49:49.482Z,0.00
2023-10-02T02:50:49.516Z,0.00
2023-10-02T02:51:48.672Z,0.00
2023-10-02T02:52:48.837Z,0.02
2023-10-02T02:53:49.034Z,0.00
2023-10-02T02:54:49.153Z,0.00
2023-10-02T02:55:49.252Z,0.00
2023-10-02T02:56:49.378Z,0.00
2023-10-02T02:57:48.476Z,0.00
2023-10-02T02:58:48.694Z,0.00
2023-10-02T02:59:48.831Z,0.00
2023-10-02T03:00:48.948Z,0.00
2023-10-02T03:01:49.202Z,0.00
2023-10-02T03:02:49.479Z,0.00
2023-10-02T03:03:48.513Z,0.00
2023-10-02T03:04:48.645Z,0.00
2023-10-02T03:05:48.803Z,0.00
2023-10-02T03:06:48.912Z,0.02
2023-10-02T03:07:49.056Z,0.00
2023-10-02T03:08:49.220Z,0.00
2023-10-02T03:09:49.337Z,0.00
2023-10-02T03:10:48.479Z,0.00
2023-10-02T03:11:48.696Z,0.00
2023-10-02T03:12:48.785Z,0.00
2023-10-02T03:13:48.941Z,0.00
2023-10-02T03:14:49.078Z,0.00
2023-10-02T03:15:49.247Z,0.02
2023-10-02T03:16:48.575Z,0.00
2023-10-02T03:17:48.672Z,0.00
2023-10-02T03:18:48.669Z,0.00
2023-10-02T03:19:48.873Z,0.00
2023-10-02T03:20:49.020Z,0.00
2023-10-02T03:21:49.217Z,0.00
2023-10-02T03:22:48.379Z,0.00
2023-10-02T03:23:48.536Z,0.00
2023-10-02T03:24:48.712Z,0.00
2023-10-02T03:25:49.148Z,0.02
2023-10-02T03:26:49.059Z,0.00
2023-10-02T03:27:48.239Z,0.00
2023-10-02T03:28:48.384Z,0.02
2023-10-02T03:29:48.546Z,0.02
2023-10-02T03:30:48.655Z,0.00
2023-10-02T03:31:48.909Z,0.02
2023-10-02T03:32:48.987Z,0.00
2023-10-02T03:33:48.046Z,0.00
2023-10-02T03:34:48.217Z,0.00
2023-10-02T03:35:48.411Z,0.00
2023-10-02T03:36:48.487Z,0.00
2023-10-02T03:37:48.738Z,0.02
2023-10-02T03:38:48.824Z,0.00
2023-10-02T03:39:47.962Z,0.00
2023-10-02T03:40:48.139Z,0.00
2023-10-02T03:41:48.307Z,0.00
2023-10-02T03:42:48.472Z,0.00
2023-10-02T03:43:48.681Z,0.00
2023-10-02T03:44:48.843Z,0.00
2023-10-02T03:45:47.971Z,0.00
2023-10-02T03:46:48.171Z,0.00
2023-10-02T03:47:48.381Z,0.00
2023-10-02T03:48:48.488Z,0.00
2023-10-02T03:49:48.711Z,0.00
2023-10-02T03:50:47.843Z,0.00
2023-10-02T03:51:48.031Z,0.00
2023-10-02T03:52:48.236Z,0.02
2023-10-02T03:53:48.429Z,0.00
2023-10-02T03:54:48.529Z,0.00
2023-10-02T03:55:48.811Z,0.00
2023-10-02T03:56:47.836Z,0.00
2023-10-02T03:57:48.040Z,0.00
2023-10-02T03:58:48.289Z,0.00
2023-10-02T03:59:48.437Z,0.00
2023-10-02T04:00:48.587Z,0.00
2023-10-02T04:01:47.734Z,0.00
2023-10-02T04:02:47.891Z,0.00
2023-10-02T04:03:48.036Z,0.02
2023-10-02T04:04:48.247Z,0.00
2023-10-02T04:05:48.414Z,0.00
2023-10-02T04:06:48.605Z,0.00
2023-10-02T04:07:47.661Z,0.00
2023-10-02T04:08:47.780Z,0.00
2023-10-02T04:09:47.936Z,0.00
2023-10-02T04:10:48.161Z,0.00
2023-10-02T04:11:48.305Z,0.02
2023-10-02T04:12:48.453Z,0.00
2023-10-02T04:13:47.600Z,0.00
2023-10-02T04:14:47.755Z,0.00
2023-10-02T04:15:47.929Z,0.02
2023-10-02T04:16:48.155Z,0.00
2023-10-02T04:17:48.441Z,0.00
2023-10-02T04:18:47.606Z,0.00
2023-10-02T04:19:47.632Z,0.00
2023-10-02T04:20:47.786Z,0.00
2023-10-02T04:21:47.969Z,0.00
2023-10-02T04:22:48.227Z,0.00
2023-10-02T04:23:48.351Z,0.00
2023-10-02T04:24:47.501Z,0.00
2023-10-02T04:25:47.621Z,0.00
2023-10-02T04:26:47.787Z,0.02
2023-10-02T04:27:47.941Z,0.00
2023-10-02T04:28:48.220Z,0.00
2023-10-02T04:29:47.448Z,0.02
2023-10-02T04:30:47.535Z,0.00
2023-10-02T04:31:47.809Z,0.00
2023-10-02T04:32:47.857Z,0.00
2023-10-02T04:33:48.006Z,0.02
2023-10-02T04:34:48.262Z,0.02
2023-10-02T04:35:47.317Z,0.00
2023-10-02T04:36:47.500Z,0.00
2023-10-02T04:37:47.702Z,0.02
2023-10-02T04:38:47.824Z,0.01
2023-10-02T04:39:48.029Z,0.01
2023-10-02T04:40:47.236Z,0.01
2023-10-02T04:41:47.298Z,0.01
2023-10-02T04:42:47.471Z,0.01
2023-10-02T04:43:47.634Z,0.01
2023-10-02T04:44:47.808Z,0.01
2023-10-02T04:45:48.042Z,0.01
2023-10-02T04:46:47.174Z,0.01
2023-10-02T04:47:47.368Z,0.01
2023-10-02T04:48:47.449Z,0.00
2023-10-02T04:49:47.647Z,0.02
2023-10-02T04:50:47.786Z,0.02
2023-10-02T04:51:48.069Z,0.03
2023-10-02T04:52:47.174Z,0.08
2023-10-02T04:53:47.455Z,0.03
2023-10-02T04:54:47.427Z,0.06
2023-10-02T04:55:47.662Z,0.07
2023-10-02T04:56:47.809Z,0.05
2023-10-02T04:57:47.980Z,0.08
2023-10-02T04:58:47.077Z,0.09
2023-10-02T04:59:47.212Z,0.09
2023-10-02T05:00:47.458Z,0.12
2023-10-02T05:01:47.589Z,0.15
2023-10-02T05:02:47.789Z,0.16
2023-10-02T05:03:47.017Z,0.22
2023-10-02T05:04:47.148Z,0.25
2023-10-02T05:05:47.242Z,0.30
2023-10-02T05:06:47.426Z,0.36
2023-10-02T05:07:47.660Z,0.45
2023-10-02T05:08:47.766Z,0.54
2023-10-02T05:09:46.877Z,0.69
2023-10-02T05:10:47.022Z,0.92
2023-10-02T05:11:47.201Z,1.21
2023-10-02T05:12:47.424Z,1.54
2023-10-02T05:13:47.550Z,1.92
2023-10-02T05:14:46.737Z,2.35
2023-10-02T05:15:46.898Z,2.88
2023-10-02T05:16:47.127Z,3.67
2023-10-02T05:17:47.234Z,4.56
2023-10-02T05:18:47.351Z,5.42
2023-10-02T05:19:47.567Z,6.20
2023-10-02T05:20:46.628Z,6.83
2023-10-02T05:21:46.834Z,7.49
2023-10-02T05:22:47.036Z,8.21
2023-10-02T05:23:47.152Z,9.00
2023-10-02T05:24:47.325Z,9.94
2023-10-02T05:25:47.925Z,10.92
2023-10-02T05:26:46.639Z,11.68
2023-10-02T05:27:46.804Z,12.24
2023-10-02T05:28:46.925Z,12.91
2023-10-02T05:29:47.097Z,13.73
2023-10-02T05:30:47.313Z,14.65
2023-10-02T05:31:47.471Z,15.64
2023-10-02T05:32:46.605Z,16.76
2023-10-02T05:33:46.734Z,17.99
2023-10-02T05:34:46.978Z,19.35
2023-10-02T05:35:47.052Z,20.83
2023-10-02T05:36:47.229Z,22.37
2023-10-02T05:37:47.749Z,23.90
2023-10-02T05:38:46.510Z,25.64
2023-10-02T05:39:46.686Z,27.28
2023-10-02T05:40:46.871Z,28.56
2023-10-02T05:41:47.016Z,29.70
2023-10-02T05:42:47.189Z,34.16
2023-10-02T05:43:46.373Z,37.70
2023-10-02T05:44:46.529Z,37.83
2023-10-02T05:45:46.725Z,40.79
2023-10-02T05:46:46.840Z,44.15
2023-10-02T05:47:47.094Z,48.39
2023-10-02T05:48:47.184Z,53.82
2023-10-02T05:49:46.297Z,58.51
2023-10-02T05:50:46.466Z,62.81
2023-10-02T05:51:46.642Z,66.13
2023-10-02T05:52:46.842Z,69.38
2023-10-02T05:53:46.996Z,73.35
2023-10-02T05:54:46.204Z,79.28
2023-10-02T05:55:46.357Z,85.62
2023-10-02T05:56:46.501Z,89.69
2023-10-02T05:57:48.862Z,94.14
2023-10-02T05:58:46.858Z,101.53
2023-10-02T05:59:47.057Z,108.56
2023-10-02T06:00:46.193Z,114.99
2023-10-02T06:01:46.343Z,123.01
2023-10-02T06:02:46.520Z,127.83
2023-10-02T06:03:46.735Z,127.30
2023-10-02T06:04:46.834Z,126.21
2023-10-02T06:05:59.835Z,125.31
2023-10-02T06:06:47.143Z,138.57
2023-10-02T06:07:46.393Z,145.69
2023-10-02T06:08:46.484Z,152.64
2023-10-02T06:09:48.444Z,156.92
2023-10-02T06:10:46.887Z,161.60
2023-10-02T06:11:46.049Z,178.40
2023-10-02T06:12:46.185Z,197.52
2023-10-02T06:13:46.426Z,208.80
2023-10-02T06:14:46.520Z,217.36
2023-10-02T06:15:46.669Z,228.18
2023-10-02T06:16:46.920Z,232.68
2023-10-02T06:17:46.037Z,242.13
2023-10-02T06:18:46.137Z,254.55
2023-10-02T06:19:46.376Z,250.41
2023-10-02T06:20:46.403Z,247.27
2023-10-02T06:21:46.605Z,250.80
2023-10-02T06:22:46.830Z,268.19
2023-10-02T06:23:45.886Z,279.57
2023-10-02T06:24:46.034Z,283.67
2023-10-02T06:25:46.257Z,289.61
2023-10-02T06:26:46.336Z,296.77
2023-10-02T06:27:46.496Z,309.25
2023-10-02T06:28:46.751Z,322.61
2023-10-02T06:29:45.791Z,338.39
2023-10-02T06:30:45.997Z,367.78
2023-10-02T06:31:46.158Z,389.05
2023-10-02T06:32:46.321Z,385.60
2023-10-02T06:33:46.454Z,381.96
2023-10-02T06:34:46.689Z,419.19
2023-10-02T06:35:45.782Z,429.32
2023-10-02T06:36:45.930Z,434.63
2023-10-02T06:37:46.093Z,463.29
2023-10-02T06:38:46.215Z,485.91
2023-10-02T06:39:46.365Z,506.11
2023-10-02T06:40:46.614Z,525.10
2023-10-02T06:41:45.669Z,536.93
2023-10-02T06:42:46.788Z,546.62
2023-10-02T06:43:45.999Z,553.58
2023-10-02T06:44:46.149Z,561.66
2023-10-02T06:45:46.299Z,552.55
2023-10-02T06:46:47.052Z,562.91
2023-10-02T06:47:45.607Z,582.48
2023-10-02T06:48:45.709Z,575.15
2023-10-02T06:49:45.937Z,626.98
2023-10-02T06:50:46.162Z,629.26
2023-10-02T06:51:46.179Z,631.21
2023-10-02T06:52:46.461Z,620.21
2023-10-02T06:53:45.495Z,615.59
2023-10-02T06:54:45.789Z,611.16
2023-10-02T06:55:45.779Z,614.23
2023-10-02T06:56:45.928Z,608.91
2023-10-02T06:57:46.062Z,607.07
2023-10-02T06:58:46.311Z,598.14
2023-10-02T06:59:45.349Z,594.17
2023-10-02T07:00:45.525Z,601.87
2023-10-02T07:01:45.740Z,629.57
2023-10-02T07:02:45.936Z,600.82
2023-10-02T07:03:46.033Z,572.97
2023-10-02T07:04:46.199Z,591.94
2023-10-02T07:05:45.238Z,571.76
2023-10-02T07:06:45.447Z,602.39
2023-10-02T07:07:45.602Z,601.46
2023-10-02T07:08:45.788Z,561.38
2023-10-02T07:09:46.171Z,571.10
2023-10-02T07:10:46.581Z,537.14
2023-10-02T07:11:45.226Z,534.07
2023-10-02T07:12:45.397Z,550.56
2023-10-02T07:13:45.552Z,556.00
2023-10-02T07:14:45.825Z,530.63
2023-10-02T07:15:45.882Z,542.30
2023-10-02T07:16:46.321Z,532.36
2023-10-02T07:17:45.207Z,568.80
2023-10-02T07:18:45.289Z,565.43
2023-10-02T07:19:45.466Z,552.74
2023-10-02T07:20:45.601Z,578.53
2023-10-02T07:21:45.760Z,588.96
2023-10-02T07:22:45.948Z,596.66
2023-10-02T07:23:45.040Z,564.40
2023-10-02T07:24:46.507Z,589.85
2023-10-02T07:25:45.347Z,592.68
2023-10-02T07:26:45.446Z,630.29
2023-10-02T07:27:45.614Z,608.90
2023-10-02T07:28:45.766Z,613.77
2023-10-02T07:29:45.865Z,646.28
2023-10-02T07:30:44.933Z,641.00
2023-10-02T07:31:45.168Z,590.37
2023-10-02T07:32:45.315Z,619.12
2023-10-02T07:33:45.455Z,610.43
2023-10-02T07:34:45.643Z,624.56
2023-10-02T07:35:45.690Z,646.42
2023-10-02T07:36:46.037Z,631.91
2023-10-02T07:37:44.933Z,634.16
2023-10-02T07:38:45.050Z,619.36
2023-10-02T07:39:45.187Z,646.82
2023-10-02T07:40:45.414Z,692.79
2023-10-02T07:41:45.445Z,709.52
2023-10-02T07:42:45.602Z,680.84
2023-10-02T07:43:45.758Z,680.18
2023-10-02T07:44:44.833Z,647.52
2023-10-02T07:45:44.985Z,694.32
2023-10-02T07:46:45.128Z,711.22
2023-10-02T07:47:45.270Z,707.06
2023-10-02T07:48:45.333Z,672.17
2023-10-02T07:49:45.544Z,713.24
2023-10-02T07:50:45.612Z,723.69
2023-10-02T07:51:44.737Z,780.12
2023-10-02T07:52:44.956Z,749.65
2023-10-02T07:53:44.957Z,673.95
2023-10-02T07:54:45.076Z,690.67
2023-10-02T07:55:45.270Z,696.35
2023-10-02T07:56:45.338Z,733.07
2023-10-02T07:57:45.537Z,759.49
2023-10-02T07:58:44.699Z,785.78
2023-10-02T07:59:45.660Z,772.24
2023-10-02T08:00:44.849Z,735.81
2023-10-02T08:01:45.071Z,693.91
2023-10-02T08:02:45.171Z,803.19
2023-10-02T08:03:45.604Z,803.47
2023-10-02T08:04:45.374Z,794.15
2023-10-02T08:05:44.461Z,798.33
2023-10-02T08:06:56.486Z,802.58
2023-10-02T08:07:47.408Z,820.82
2023-10-02T08:08:44.781Z,810.22
2023-10-02T08:09:44.988Z,795.48
2023-10-02T08:10:45.068Z,794.85
2023-10-02T08:11:45.150Z,807.25
2023-10-02T08:12:45.278Z,800.40
2023-10-02T08:13:45.413Z,777.16
2023-10-02T08:14:44.534Z,806.54
2023-10-02T08:15:44.720Z,836.87
2023-10-02T08:16:44.732Z,857.78
2023-10-02T08:17:44.870Z,857.78
2023-10-02T08:18:44.953Z,862.83
2023-10-02T08:19:45.089Z,870.19
2023-10-02T08:20:45.206Z,877.11
2023-10-02T08:21:44.300Z,875.73
2023-10-02T08:22:44.460Z,868.34
2023-10-02T08:23:45.450Z,811.01
2023-10-02T08:24:44.630Z,788.55
2023-10-02T08:25:45.771Z,812.06
2023-10-02T08:26:45.067Z,787.14
2023-10-02T08:27:45.006Z,803.44
2023-10-02T08:28:44.101Z,788.98
2023-10-02T08:29:45.177Z,860.19
2023-10-02T08:30:44.361Z,897.38
2023-10-02T08:31:44.734Z,907.73
2023-10-02T08:32:44.695Z,909.85
2023-10-02T08:33:54.589Z,868.80
2023-10-02T08:34:45.959Z,831.50
2023-10-02T08:35:44.987Z,779.56
2023-10-02T08:36:44.015Z,831.96
2023-10-02T08:37:44.162Z,823.87
2023-10-02T08:38:44.346Z,861.66
2023-10-02T08:39:44.345Z,849.42
2023-10-02T08:40:44.453Z,876.13
2023-10-02T08:41:44.545Z,875.92
2023-10-02T08:42:44.593Z,871.11
2023-10-02T08:43:44.773Z,866.93
2023-10-02T08:44:44.744Z,897.26
2023-10-02T08:45:44.865Z,882.98
2023-10-02T08:46:43.933Z,856.84
2023-10-02T08:47:44.066Z,876.44
2023-10-02T08:48:44.116Z,810.30
2023-10-02T08:49:44.259Z,795.54
2023-10-02T08:50:44.349Z,873.20
2023-10-02T08:51:44.415Z,836.73
2023-10-02T08:52:44.548Z,840.82
2023-10-02T08:53:44.596Z,822.92
2023-10-02T08:54:44.855Z,841.62
2023-10-02T08:55:43.815Z,865.26
2023-10-02T08:56:43.877Z,917.05
2023-10-02T08:57:44.867Z,927.15
2023-10-02T08:58:44.474Z,958.65
2023-10-02T08:59:44.190Z,959.49
2023-10-02T09:00:44.447Z,944.68
2023-10-02T09:01:44.532Z,941.00
2023-10-02T09:02:44.789Z,947.14
2023-10-02T09:03:44.776Z,953.73
2023-10-02T09:04:43.674Z,958.51
2023-10-02T09:05:43.769Z,972.29
2023-10-02T09:06:43.887Z,912.41
2023-10-02T09:07:43.946Z,909.26
2023-10-02T09:08:44.051Z,947.48
2023-10-02T09:09:44.127Z,972.45
2023-10-02T09:10:44.214Z,982.81
2023-10-02T09:11:44.319Z,951.68
2023-10-02T09:12:44.401Z,993.93
2023-10-02T09:13:45.513Z,1021.16
2023-10-02T09:14:43.744Z,1024.02
2023-10-02T09:15:44.733Z,1003.33
2023-10-02T09:16:44.832Z,1034.70
2023-10-02T09:17:44.333Z,1046.61
2023-10-02T09:18:44.074Z,1049.81
2023-10-02T09:19:44.232Z,1063.07
2023-10-02T09:20:44.347Z,1054.12
2023-10-02T09:21:43.446Z,1054.87
2023-10-02T09:22:43.589Z,1059.61
2023-10-02T09:23:43.741Z,1038.87
2023-10-02T09:24:43.853Z,1030.21
2023-10-02T09:25:44.998Z,1037.76
2023-10-02T09:26:44.121Z,1033.37
2023-10-02T09:27:44.275Z,1056.94
2023-10-02T09:28:43.308Z,1059.80
2023-10-02T09:29:43.500Z,1086.75
2023-10-02T09:30:44.080Z,1052.05
2023-10-02T09:31:44.634Z,1077.59
2023-10-02T09:32:43.796Z,1097.74
2023-10-02T09:34:09.550Z,1114.27
2023-10-02T09:35:07.639Z,1120.52
2023-10-02T09:36:02.223Z,1117.83
2023-10-02T09:37:33.539Z,1105.68
2023-10-02T09:38:05.343Z,1113.90
2023-10-02T09:38:44.810Z,1095.89
2023-10-02T09:39:48.059Z,1069.47
2023-10-02T09:40:43.774Z,1008.19
2023-10-02T09:41:44.842Z,1046.17
2023-10-02T09:42:44.018Z,1021.42
2023-10-02T09:43:44.165Z,1050.78
2023-10-02T09:44:43.316Z,1055.31
2023-10-02T09:45:43.396Z,1081.52
2023-10-02T09:46:43.442Z,1078.33
2023-10-02T09:47:59.698Z,1076.02
2023-10-02T09:48:44.702Z,1130.73
2023-10-02T09:49:43.740Z,1144.92
2023-10-02T09:50:43.889Z,1147.81
2023-10-02T09:51:44.014Z,1114.46
2023-10-02T09:52:43.107Z,1123.72
2023-10-02T09:53:43.195Z,1080.75
2023-10-02T09:54:43.324Z,1093.93
2023-10-02T09:55:43.435Z,1073.67
2023-10-02T09:56:43.593Z,1066.32
2023-10-02T09:57:44.940Z,1087.28
2023-10-02T09:58:43.778Z,1099.87
2023-10-02T09:59:43.864Z,1108.24
2023-10-02T10:00:43.019Z,1146.17
2023-10-02T10:01:43.035Z,1141.93
2023-10-02T10:02:43.194Z,1132.70
2023-10-02T10:03:43.203Z,1040.73
2023-10-02T10:04:43.239Z,1034.33
2023-10-02T10:05:43.356Z,1064.78
2023-10-02T10:06:43.484Z,1042.29
2023-10-02T10:07:43.630Z,1060.32
2023-10-02T10:08:43.584Z,1038.87
2023-10-02T10:09:44.635Z,1060.41
2023-10-02T10:10:43.762Z,1051.00
2023-10-02T10:11:42.833Z,1015.03
2023-10-02T10:12:44.170Z,940.13
2023-10-02T10:13:44.043Z,911.45
2023-10-02T10:14:43.131Z,983.43
2023-10-02T10:15:43.186Z,1015.02
2023-10-02T10:16:43.314Z,1003.34
2023-10-02T10:17:43.444Z,981.34
2023-10-02T10:18:43.470Z,990.19
2023-10-02T10:19:44.426Z,1023.15
2023-10-02T10:20:42.624Z,1015.43
2023-10-02T10:21:42.718Z,1073.59
2023-10-02T10:22:42.770Z,1052.47
2023-10-02T10:23:42.858Z,1028.26
2023-10-02T10:24:42.927Z,980.56
2023-10-02T10:25:43.036Z,1021.67
2023-10-02T10:26:43.117Z,993.89
2023-10-02T10:27:43.199Z,1027.03
2023-10-02T10:28:44.220Z,1068.21
2023-10-02T10:29:43.472Z,1072.44
2023-10-02T10:30:43.416Z,1055.68
2023-10-02T10:31:44.460Z,1020.78
2023-10-02T10:32:42.655Z,1016.91
2023-10-02T10:33:42.687Z,1065.39
2023-10-02T10:34:42.710Z,1099.75
2023-10-02T10:35:42.809Z,1145.10
2023-10-02T10:36:42.981Z,1104.57
2023-10-02T10:37:43.941Z,1110.97
2023-10-02T10:38:43.261Z,1071.68
2023-10-02T10:39:44.089Z,1106.92
2023-10-02T10:40:44.174Z,1141.37
2023-10-02T10:41:43.407Z,1098.07
2023-10-02T10:42:43.336Z,1105.72
2023-10-02T10:43:42.474Z,1054.53
2023-10-02T10:44:42.568Z,1075.90
2023-10-02T10:45:42.724Z,1043.82
2023-10-02T10:46:43.739Z,1075.25
2023-10-02T10:47:43.272Z,1119.78
2023-10-02T10:48:43.050Z,1110.11
2023-10-02T10:49:43.162Z,1077.10
2023-10-02T10:50:44.203Z,1077.06
2023-10-02T10:51:42.269Z,1082.95
2023-10-02T10:52:43.278Z,1050.72
2023-10-02T10:53:42.458Z,1033.86
2023-10-02T10:54:56.766Z,1120.20
2023-10-02T10:55:43.497Z,994.90
2023-10-02T10:56:42.581Z,997.36
2023-10-02T10:57:42.674Z,1052.62
2023-10-02T10:58:42.783Z,1043.09
2023-10-02T10:59:42.825Z,1064.08
2023-10-02T11:00:43.922Z,1092.67
2023-10-02T11:01:43.990Z,1062.14
2023-10-02T11:02:44.023Z,1098.79
2023-10-02T11:03:43.273Z,1099.01
2023-10-02T11:04:42.229Z,1163.94
2023-10-02T11:05:42.287Z,1078.01
2023-10-02T11:06:43.287Z,1156.18
2023-10-02T11:07:43.364Z,1131.58
2023-10-02T11:08:42.567Z,1166.89
2023-10-02T11:09:42.701Z,1091.22
2023-10-02T11:10:43.604Z,1146.18
2023-10-02T11:11:43.735Z,1133.50
2023-10-02T11:12:43.804Z,1086.38
2023-10-02T11:13:42.910Z,1151.56
2023-10-02T11:14:41.901Z,1146.80
2023-10-02T11:15:42.000Z,1133.71
2023-10-02T11:16:42.038Z,1100.61
2023-10-02T11:17:42.287Z,1147.29
2023-10-02T11:18:42.201Z,1158.36
2023-10-02T11:19:42.196Z,1159.13
2023-10-02T11:20:42.266Z,1201.60
2023-10-02T11:21:42.380Z,1211.91
2023-10-02T11:22:42.418Z,1209.22
2023-10-02T11:23:42.924Z,1182.77
2023-10-02T11:24:44.213Z,1190.21
2023-10-02T11:25:42.584Z,1189.10
2023-10-02T11:26:42.708Z,1197.08
2023-10-02T11:27:42.729Z,1176.92
2023-10-02T11:28:41.766Z,1123.96
2023-10-02T11:29:41.877Z,1207.68
2023-10-02T11:30:42.880Z,1222.27
2023-10-02T11:31:41.979Z,1199.71
2023-10-02T11:32:42.206Z,1228.25
2023-10-02T11:33:42.131Z,1196.45
2023-10-02T11:34:42.228Z,1231.94
2023-10-02T11:35:42.467Z,1116.54
2023-10-02T11:36:42.443Z,1214.55
2023-10-02T11:37:42.543Z,1189.01
2023-10-02T11:38:42.692Z,1178.98
2023-10-02T11:39:45.729Z,1187.37
2023-10-02T11:40:42.720Z,1242.15
2023-10-02T11:41:41.984Z,1266.39
2023-10-02T11:42:43.030Z,1275.28
2023-10-02T11:43:42.047Z,1276.93
2023-10-02T11:44:43.048Z,1274.82
2023-10-02T11:45:42.184Z,1275.82
2023-10-02T11:46:42.284Z,1276.65
2023-10-02T11:47:42.391Z,1273.16
2023-10-02T11:48:42.600Z,1257.53
2023-10-02T11:49:41.468Z,1260.27
2023-10-02T11:50:41.577Z,1253.79
2023-10-02T11:51:41.606Z,1240.54
2023-10-02T11:52:41.709Z,1231.66
2023-10-02T11:53:41.772Z,1212.29
2023-10-02T11:54:42.024Z,1210.29
2023-10-02T11:55:41.949Z,1259.39
2023-10-02T11:56:42.005Z,1269.25
2023-10-02T11:57:42.086Z,1231.29
2023-10-02T11:58:42.166Z,1241.04
2023-10-02T11:59:42.249Z,1266.54
2023-10-02T12:00:42.758Z,1078.23
2023-10-02T12:01:41.350Z,1275.10
2023-10-02T12:02:41.551Z,1259.74
2023-10-02T12:03:41.660Z,1280.86
2023-10-02T12:04:41.548Z,1281.04
2023-10-02T12:05:41.674Z,1208.88
2023-10-02T12:06:41.705Z,1247.10
2023-10-02T12:07:41.766Z,1270.65
2023-10-02T12:08:42.792Z,1282.39
2023-10-02T12:09:41.916Z,1258.03
2023-10-02T12:10:42.007Z,1289.97
2023-10-02T12:11:42.025Z,1317.04
2023-10-02T12:12:42.052Z,1323.69
2023-10-02T12:13:42.091Z,1283.26
2023-10-02T12:14:41.147Z,1280.76
2023-10-02T12:15:41.194Z,1230.33
2023-10-02T12:16:41.398Z,1267.71
2023-10-02T12:17:41.408Z,1157.41
2023-10-02T12:18:41.360Z,1208.33
2023-10-02T12:19:41.572Z,1264.02
2023-10-02T12:20:41.571Z,1248.76
2023-10-02T12:21:48.463Z,1184.42
2023-10-02T12:22:42.642Z,1174.82
2023-10-02T12:23:42.671Z,1226.82
2023-10-02T12:24:41.776Z,1199.64
2023-10-02T12:25:41.828Z,1162.73
2023-10-02T12:26:41.925Z,1182.32
2023-10-02T12:27:42.001Z,1178.88
2023-10-02T12:28:40.993Z,1135.86
2023-10-02T12:29:42.225Z,1210.86
2023-10-02T12:30:41.214Z,1210.35
2023-10-02T12:31:42.189Z,1227.97
2023-10-02T12:32:41.381Z,1196.98
2023-10-02T12:33:42.225Z,1187.77
2023-10-02T12:34:41.321Z,1132.94
2023-10-02T12:35:41.417Z,1155.84
2023-10-02T12:36:42.458Z,1247.91
2023-10-02T12:37:41.572Z,1194.63
2023-10-02T12:38:41.555Z,1163.76
2023-10-02T12:39:41.614Z,1142.45
2023-10-02T12:40:41.666Z,1160.38
2023-10-02T12:41:41.775Z,1178.59
2023-10-02T12:42:40.805Z,1137.06
2023-10-02T12:43:40.959Z,1139.98